Terminal Aerodrome Forecast
Issued by NWS

Home | Current Version | Previous Version | Text Only | Print | Product List | Glossary On
Versions: 1 2 3 4 5 6 7 8 9 10 11 12 13 14 15 16 17
000
FTUS46 KSTO 190500
TAFSAC
TAF
KSAC 190533Z 1906/2006 15008KT 5SM BR BKN050
     FM191200 15008KT 4SM -SHRA BR OVC025
     FM200200 15005KT 5SM BR OVC015
      TEMPO 2003/2006 4SM -SHRA BR OVC025=

USA.gov is the U.S. government's official web portal to all federal, state and local government web resources and services.